Latest Weather Observations for Kiama

IDN60801

Issued at 11:35 pm EST Friday 19 September 2014 (issued every 30 minutes, with the page automatically refreshed every 10 minutes)

About weather observations | Map of weather stations | Latest weather observations for NSW | Other Formats
Station Details ID: 068242 Name: KIAMA (BOMBO HEADLAND) Lat: -34.65 Lon: 150.86 Height: 15.5 m
Data from the previous 72 hours. | See also: Recent months at Kiama
Date/Time
EST
Temp
°C
App
Temp
°C
Dew
Point
Rel
Hum
%
Delta-T
°C
Wind Press
QNH
hPa
Press
MSL
hPa
Rain
since 9 am
mm
Dir
 
Spd
km/h
Gust
km/h
Spd
kts
Gust
kts
19/11:30pm 10.8 6.8 2.6 57 3.5 WNW 13 13 7 7 - - 0.0
19/11:00pm 11.0 6.9 2.1 54 3.8 WNW 13 15 7 8 - - 0.0
19/10:30pm 10.9 7.2 2.2 55 3.7 W 11 15 6 8 - - 0.0
19/10:00pm 11.0 7.0 2.6 56 3.6 W 13 15 7 8 - - 0.0
19/09:30pm 11.3 7.7 3.1 57 3.6 W 11 13 6 7 - - 0.0
19/09:00pm 10.7 7.2 3.5 61 3.2 W 11 13 6 7 - - 0.0
19/08:30pm 11.7 8.2 3.5 57 3.6 W 11 13 6 7 - - 0.0
19/08:00pm 11.4 8.0 3.9 60 3.3 W 11 13 6 7 - - 0.0
19/07:30pm 11.8 8.4 3.8 58 3.6 W 11 13 6 7 - - 0.0
19/07:00pm 11.7 8.7 4.0 59 3.4 W 9 13 5 7 - - 0.0
19/06:30pm 13.1 11.5 2.6 49 4.6 CALM 0 6 0 3 - - 0.0
19/06:00pm 14.0 12.4 2.6 46 5.0 CALM 0 2 0 1 - - 0.0
19/05:30pm 14.8 12.9 2.7 44 5.4 SE 2 6 1 3 - - 0.0
19/05:00pm 15.3 12.8 3.5 45 5.4 E 6 9 3 5 - - 0.0
19/04:30pm 15.5 12.7 3.3 44 5.6 ESE 7 13 4 7 - - 0.0
19/04:00pm 15.7 12.4 2.5 41 5.9 SE 9 15 5 8 - - 0.0
19/03:30pm 15.7 12.1 2.8 42 5.8 SE 11 13 6 7 - - 0.0
19/03:00pm 15.6 12.4 5.2 50 4.9 ESE 11 19 6 10 - - 0.0
19/02:30pm 16.1 13.0 7.1 55 4.5 SE 13 19 7 10 - - 0.0
19/02:00pm 16.1 12.8 6.5 53 4.7 SE 13 19 7 10 - - 0.0
19/01:30pm 15.8 12.0 5.7 51 4.8 SE 15 20 8 11 - - 0.0
19/01:00pm 15.7 11.6 6.2 53 4.6 SSE 17 20 9 11 - - 0.0
19/12:30pm 15.6 11.5 6.3 54 4.5 SSE 17 20 9 11 - - 0.0
19/12:00pm 15.5 11.1 6.5 55 4.4 SSE 19 22 10 12 - - 0.0
19/11:30am 15.0 9.9 5.8 54 4.4 SSE 22 26 12 14 - - 0.0
19/11:00am 14.8 9.7 5.9 55 4.3 S 22 30 12 16 - - 0.0
19/10:30am 15.0 9.5 6.0 55 4.3 SSE 24 28 13 15 - - 0.0
19/10:00am 15.2 9.4 4.6 49 4.9 SSE 24 28 13 15 - - 0.0
19/09:30am 16.3 14.3 2.3 39 6.3 SSE 2 6 1 3 - - 0.0
19/09:00am 15.3 12.4 2.8 43 5.6 SW 7 11 4 6 - - 0.0
19/08:30am 14.9 11.7 2.8 44 5.4 W 9 13 5 7 - - 0.0
19/08:00am 13.5 9.6 3.3 50 4.6 W 13 17 7 9 - - 0.0
19/07:30am 12.5 8.9 3.2 53 4.1 W 11 17 6 9 - - 0.0
19/07:00am 11.2 8.0 3.3 58 3.5 W 9 15 5 8 - - 0.0
19/06:30am 10.0 6.4 3.1 62 3.0 WNW 11 17 6 9 - - 0.0
19/06:00am 9.3 5.3 2.6 63 2.8 W 13 15 7 8 - - 0.0
19/05:30am 9.6 6.0 2.9 63 2.9 W 11 15 6 8 - - 0.0
19/05:00am 9.7 6.0 2.6 61 3.0 W 11 17 6 9 - - 0.0
19/04:30am 9.6 6.0 2.7 62 2.9 W 11 15 6 8 - - 0.0
19/04:00am 9.7 6.1 3.0 63 2.9 W 11 13 6 7 - - 0.0
19/03:30am 9.9 5.9 3.0 62 3.0 W 13 15 7 8 - - 0.0
19/03:00am 10.2 6.6 3.0 61 3.1 W 11 13 6 7 - - 0.0
19/02:30am 10.2 6.6 3.0 61 3.1 W 11 15 6 8 - - 0.0
19/02:00am 10.2 6.6 3.0 61 3.1 W 11 15 6 8 - - 0.0
19/01:30am 10.1 6.2 3.4 63 2.9 W 13 15 7 8 - - 0.0
19/01:00am 10.1 8.5 4.7 69 2.4 S 2 6 1 3 - - 0.0
19/12:30am 9.7 6.7 4.1 68 2.5 W 9 13 5 7 - - 0.0
19/12:00am 9.7 7.2 4.9 72 2.2 W 7 11 4 6 - - 0.0
 
Date/Time
EST
Temp
°C
App
Temp
°C
Dew
Point
Rel
Hum
%
Delta-T
°C
Wind Press
QNH
hPa
Press
MSL
hPa
Rain
since 9 am
mm
Dir
 
Spd
km/h
Gust
km/h
Spd
kts
Gust
kts
18/11:30pm 10.2 8.4 5.4 72 2.2 SW 4 7 2 4 - - 0.0
18/11:00pm 10.4 8.2 5.2 70 2.4 WSW 6 9 3 5 - - 0.0
18/10:30pm 11.5 8.8 5.8 68 2.7 W 9 13 5 7 - - 0.0
18/10:00pm 11.5 9.3 6.0 69 2.6 W 7 13 4 7 - - 0.0
18/09:30pm 12.8 9.4 7.7 71 2.5 SW 15 20 8 11 - - 0.0
18/09:00pm 13.1 8.4 7.8 70 2.6 SSW 22 28 12 15 - - 0.0
18/08:30pm 13.7 9.2 6.3 61 3.5 SSW 19 22 10 12 - - 0.0
18/08:00pm 13.6 10.8 5.3 57 3.9 WSW 9 13 5 7 - - 0.0
18/07:30pm 13.0 10.5 4.9 58 3.7 W 7 11 4 6 - - 0.0
18/07:00pm 13.7 11.3 5.3 57 3.9 SW 7 9 4 5 - - 0.0
18/06:30pm 13.6 11.2 5.3 57 3.9 WSW 7 9 4 5 - - 0.0
18/06:00pm 13.6 11.4 5.5 58 3.8 SW 6 7 3 4 - - 0.0
18/05:30pm 14.6 12.3 5.9 56 4.2 SSW 7 11 4 6 - - 0.0
18/05:00pm 14.9 11.7 5.1 52 4.6 S 11 15 6 8 - - 0.0
18/04:30pm 15.6 11.5 4.6 48 5.2 SSE 15 19 8 10 - - 0.0
18/04:00pm 15.7 11.1 3.8 45 5.5 SSE 17 20 9 11 - - 0.0
18/03:30pm 15.9 12.0 3.4 43 5.7 SE 13 20 7 11 - - 0.0
18/03:00pm 15.9 10.7 3.7 44 5.6 SE 20 24 11 13 - - 0.0
18/02:30pm 15.9 10.5 4.3 46 5.4 SE 22 26 12 14 - - 0.0
18/02:00pm 15.9 10.3 3.7 44 5.6 SE 22 28 12 15 - - 0.0
18/01:30pm 15.9 9.9 3.4 43 5.7 SE 24 30 13 16 - - 0.0
18/01:00pm 15.7 9.4 3.8 45 5.5 SSE 26 30 14 16 - - 0.0
18/12:30pm 15.2 8.2 1.7 40 5.9 S 28 35 15 19 - - 0.0
18/12:00pm 15.5 9.1 3.3 44 5.6 S 26 33 14 18 - - 0.0
18/11:30am 16.5 11.1 1.4 36 6.7 SSW 19 35 10 19 - - 0.0
18/11:00am 15.9 9.7 2.3 40 6.1 SSW 24 32 13 17 - - 0.0
18/10:30am 15.8 9.8 1.2 37 6.4 SSW 22 37 12 20 - - 0.0
18/10:00am 15.3 9.4 1.4 39 6.1 SW 22 30 12 16 - - 0.0
18/09:30am 15.1 10.3 0.5 37 6.2 SW 15 33 8 18 - - 0.0
18/09:00am 15.2 10.5 0.6 37 6.3 W 15 24 8 13 - - 0.0
18/08:30am 14.8 10.5 1.3 40 5.9 W 13 20 7 11 - - 0.0
18/08:00am 13.7 8.7 1.4 43 5.3 W 17 24 9 13 - - 0.0
18/07:30am 12.8 6.8 1.2 45 4.9 W 22 30 12 16 - - 0.0
18/07:00am 12.1 6.1 1.1 47 4.6 W 22 32 12 17 - - 0.0
18/06:30am 11.5 5.1 1.2 49 4.3 W 24 35 13 19 - - 0.0
18/06:00am 11.8 5.4 1.2 48 4.5 WSW 24 33 13 18 - - 0.0
18/05:30am 12.0 5.2 0.8 46 4.7 W 26 35 14 19 - - 0.0
18/05:00am 12.4 6.4 1.1 46 4.8 WSW 22 30 12 16 - - 0.0
18/04:30am 12.6 6.6 1.3 46 4.8 WSW 22 35 12 19 - - 0.0
18/04:00am 12.8 6.4 1.2 45 4.9 WSW 24 37 13 20 - - 0.0
18/03:30am 12.8 6.9 1.8 47 4.7 WSW 22 32 12 17 - - 0.0
18/03:00am 13.1 6.1 1.8 46 4.9 WSW 28 41 15 22 - - 0.0
18/02:30am 13.4 6.3 1.4 44 5.1 WSW 28 41 15 22 - - 0.0
18/02:00am 13.9 6.7 0.9 41 5.5 WSW 28 43 15 23 - - 0.0
18/01:30am 13.9 6.4 1.2 42 5.4 WSW 30 41 16 22 - - 0.0
18/01:00am 14.3 6.2 0.9 40 5.7 WSW 33 48 18 26 - - 0.0
18/12:41am 14.2 7.2 1.8 43 5.4 WSW 28 46 15 25 - - 0.0
18/12:30am 14.4 7.0 1.7 42 5.5 WSW 30 48 16 26 - - 0.0
18/12:00am 14.5 7.5 1.8 42 5.6 WSW 28 41 15 22 - - 0.0
 
Date/Time
EST
Temp
°C
App
Temp
°C
Dew
Point
Rel
Hum
%
Delta-T
°C
Wind Press
QNH
hPa
Press
MSL
hPa
Rain
since 9 am
mm
Dir
 
Spd
km/h
Gust
km/h
Spd
kts
Gust
kts
17/11:30pm 14.7 6.3 1.6 41 5.7 WSW 35 61 19 33 - - 0.0
17/11:00pm 14.8 6.8 1.7 41 5.7 WSW 33 52 18 28 - - 0.0
17/10:39pm 14.8 7.0 2.0 42 5.6 WSW 32 52 17 28 - - 0.0
17/10:30pm 14.9 6.9 1.8 41 5.7 WSW 33 52 18 28 - - 0.0
17/10:00pm 15.0 7.2 1.9 41 5.8 WSW 32 52 17 28 - - 0.0
17/09:33pm 15.1 7.7 2.0 41 5.8 WSW 30 54 16 29 - - 0.0
17/09:30pm 15.2 7.8 1.7 40 5.9 WSW 30 44 16 24 - - 0.0
17/09:00pm 15.2 9.8 2.4 42 5.7 WSW 20 41 11 22 - - 0.0
17/08:30pm 15.1 10.9 3.6 46 5.3 W 15 28 8 15 - - 0.0
17/08:00pm 15.4 10.5 4.2 47 5.2 W 19 33 10 18 - - 0.0
17/07:30pm 15.9 11.0 4.0 45 5.5 W 19 32 10 17 - - 0.0
17/07:00pm 15.7 12.6 3.5 44 5.6 WNW 9 19 5 10 - - 0.0
17/06:30pm 16.1 12.2 3.5 43 5.8 W 13 24 7 13 - - 0.0
17/06:00pm 16.7 11.4 3.1 40 6.2 W 20 39 11 21 - - 0.0
17/05:30pm 17.5 12.7 2.7 37 6.8 WSW 17 30 9 16 - - 0.0
17/05:00pm 18.6 12.4 2.4 34 7.4 W 24 43 13 23 - - 0.0
17/04:30pm 19.0 11.9 1.5 31 7.9 W 28 54 15 29 - - 0.0
17/04:10pm 19.0 11.5 1.5 31 7.9 W 30 48 16 26 - - 0.0
17/04:00pm 19.1 10.3 1.1 30 8.1 W 37 54 20 29 - - 0.0
17/03:35pm 19.4 10.9 0.9 29 8.3 W 35 56 19 30 - - 0.0
17/03:30pm 19.3 10.0 0.8 29 8.3 W 39 57 21 31 - - 0.0
17/03:11pm 19.6 12.1 1.1 29 8.3 W 30 48 16 26 - - 0.0
17/03:00pm 19.6 11.7 1.1 29 8.3 W 32 48 17 26 - - 0.0
17/02:30pm 19.6 11.6 1.6 30 8.2 WSW 33 52 18 28 - - 0.0
17/02:23pm 19.3 12.1 0.8 29 8.3 WSW 28 52 15 28 - - 0.0
17/02:00pm 19.8 12.8 1.7 30 8.3 W 28 44 15 24 - - 0.0
17/01:30pm 20.6 16.4 3.8 33 8.0 W 15 32 8 17 - - 0.0
17/01:00pm 19.4 13.4 3.2 34 7.6 WSW 24 37 13 20 - - 0.0
17/12:30pm 19.4 12.7 3.6 35 7.5 SW 28 41 15 22 - - 0.0
17/12:00pm 19.5 12.7 3.2 34 7.6 WSW 28 44 15 24 - - 0.0
17/11:30am 19.6 13.6 3.3 34 7.7 W 24 39 13 21 - - 0.0
17/11:04am 19.3 12.0 2.2 32 7.8 W 30 48 16 26 - - 0.0
17/11:00am 19.2 11.4 2.6 33 7.7 W 33 48 18 26 - - 0.0
17/10:44am 18.9 10.9 1.4 31 7.9 W 33 54 18 29 - - 0.0
17/10:30am 18.9 11.0 2.3 33 7.6 W 33 48 18 26 - - 0.0
17/10:02am 18.3 9.5 1.3 32 7.6 W 37 57 20 31 - - 0.0
17/10:00am 18.4 9.2 1.4 32 7.6 W 39 56 21 30 - - 0.0
17/09:30am 18.5 11.3 2.8 35 7.2 W 30 43 16 23 - - 0.0
17/09:16am 18.1 10.4 2.4 35 7.2 W 32 56 17 30 - - 0.0
17/09:00am 17.9 11.8 3.0 37 6.9 W 24 35 13 19 - - 0.0
17/08:30am 17.3 11.7 5.6 46 5.7 W 24 35 13 19 - - 0.0
17/08:00am 16.7 11.6 5.9 49 5.2 W 22 35 12 19 - - 0.0
17/07:30am 16.3 11.6 6.2 51 4.9 W 20 35 11 19 - - 0.0
17/07:00am 15.8 12.1 6.3 53 4.6 W 15 26 8 14 - - 0.0
17/06:30am 15.5 11.5 6.5 55 4.4 WNW 17 24 9 13 - - 0.0
17/06:00am 15.3 12.4 6.6 56 4.2 NW 11 24 6 13 - - 0.0
17/05:30am 15.5 11.2 6.8 56 4.3 W 19 35 10 19 - - 0.0
17/05:00am 15.7 11.4 7.0 56 4.3 W 19 33 10 18 - - 0.0
17/04:30am 16.1 12.2 7.3 56 4.4 WSW 17 35 9 19 - - 0.0
17/04:00am 16.2 11.5 7.7 57 4.3 W 22 35 12 19 - - 0.0
17/03:30am 15.8 12.8 7.8 59 4.0 W 13 26 7 14 - - 0.0
17/03:00am 15.7 11.9 7.7 59 4.0 W 17 26 9 14 - - 0.0
17/02:30am 15.9 12.2 7.9 59 4.0 W 17 26 9 14 - - 0.0
17/02:00am 16.1 11.0 7.8 58 4.2 W 24 39 13 21 - - 0.0
17/01:30am 16.1 9.3 7.8 58 4.2 W 33 52 18 28 - - 0.0
17/01:17am 16.1 9.5 7.8 58 4.2 W 32 56 17 30 - - 0.0
17/01:00am 16.2 10.4 7.9 58 4.2 WSW 28 41 15 22 - - 0.0
17/12:30am 16.3 9.5 7.8 57 4.3 WSW 33 50 18 27 - - 0.0
17/12:00am 16.4 10.1 7.3 55 4.5 WSW 30 48 16 26 - - 0.0

Other Formats:

Comma delimited format used in spreadsheet applications
http://www.bom.gov.au/fwo/IDN60801/IDN60801.95749.axf

JavaScript Object Notation format (JSON) in row-major order
http://www.bom.gov.au/fwo/IDN60801/IDN60801.95749.json